Time;durP1;ratioP1;P1;durP2;ratioP2;P2;SDS_P1;SDS_P2;PMS_P1;PMS_P2;Temp;Humidity;BMP_temperature;BMP_pressure;BME280_temperature;BME280_humidity;BME280_pressure;Samples;Min_cycle;Max_cycle;Signal;HPM_P1;HPM_P2
2023/11/05 00:02:06;;;;;;;22.40;9.80;;;;;;;16.99;70.61;98216.95;105801;1256;65913;-74
2023/11/05 00:04:33;;;;;;;19.40;10.00;;;;;;;17.00;70.54;98195.64;105821;1258;61371;-72
2023/11/05 00:07:00;;;;;;;16.50;8.70;;;;;;;17.02;70.59;98192.54;105793;1254;64165;-70
2023/11/05 00:09:26;;;;;;;20.90;8.80;;;;;;;17.03;70.51;98192.77;105421;1254;61384;-74
2023/11/05 00:11:53;;;;;;;18.00;8.60;;;;;;;17.05;70.43;98212.38;105960;1257;61353;-73
2023/11/05 00:14:20;;;;;;;17.40;7.30;;;;;;;17.07;70.43;98218.02;105737;1256;64476;-72
2023/11/05 00:16:47;;;;;;;13.10;6.50;;;;;;;17.07;70.23;98221.75;105826;1258;61988;-74
2023/11/05 00:19:13;;;;;;;14.00;6.80;;;;;;;17.06;70.33;98213.14;105720;1257;63737;-72
2023/11/05 00:21:40;;;;;;;13.00;6.30;;;;;;;17.06;70.40;98215.81;105741;1254;61375;-73
2023/11/05 00:24:07;;;;;;;15.70;6.50;;;;;;;17.05;70.53;98213.43;105876;1257;61248;-72
2023/11/05 00:26:34;;;;;;;15.20;6.20;;;;;;;17.07;70.42;98221.42;105756;1259;65732;-71
2023/11/05 00:29:00;;;;;;;12.60;5.80;;;;;;;17.07;70.28;98228.08;105627;1254;61292;-72
2023/11/05 00:31:27;;;;;;;12.70;6.10;;;;;;;17.08;70.26;98223.52;105582;1254;64016;-73
2023/11/05 00:33:53;;;;;;;10.80;6.00;;;;;;;17.10;70.17;98211.41;105913;1254;61244;-70
2023/11/05 00:36:20;;;;;;;14.00;6.70;;;;;;;17.09;70.13;98215.77;105902;1254;61228;-71
2023/11/05 00:38:47;;;;;;;15.20;5.90;;;;;;;17.08;70.22;98211.33;105603;1256;66620;-70
2023/11/05 00:41:14;;;;;;;11.50;6.00;;;;;;;17.06;70.19;98208.18;104862;1255;261713;-69
2023/11/05 00:43:41;;;;;;;12.50;5.10;;;;;;;17.05;70.14;98216.27;105494;1257;64024;-69
2023/11/05 00:46:08;;;;;;;15.00;6.10;;;;;;;17.04;70.23;98212.14;105668;1254;61248;-71
2023/11/05 00:48:35;;;;;;;10.50;5.50;;;;;;;17.05;70.26;98207.08;105739;1254;61355;-70
2023/11/05 00:51:03;;;;;;;13.60;5.40;;;;;;;17.05;70.27;98197.77;106292;1254;65766;-72
2023/11/05 00:53:30;;;;;;;13.10;5.70;;;;;;;17.06;70.25;98195.95;105518;1257;61305;-77
2023/11/05 00:55:56;;;;;;;13.30;5.50;;;;;;;17.06;70.20;98187.21;105696;1257;64876;-71
2023/11/05 00:58:23;;;;;;;10.60;5.10;;;;;;;17.06;70.23;98183.48;105742;1254;61369;-74
2023/11/05 01:00:50;;;;;;;13.60;5.20;;;;;;;17.06;70.11;98179.95;105651;1256;61237;-72
2023/11/05 01:03:17;;;;;;;13.30;5.50;;;;;;;17.05;69.98;98184.80;105691;1262;65950;-71
2023/11/05 01:05:44;;;;;;;13.30;5.50;;;;;;;17.05;70.20;98203.26;105930;1257;61276;-73
2023/11/05 01:08:12;;;;;;;14.80;5.70;;;;;;;17.05;70.08;98195.02;105738;1257;64130;-71
2023/11/05 01:10:38;;;;;;;10.70;5.30;;;;;;;17.05;69.97;98196.78;106054;1258;61244;-72
2023/11/05 01:13:05;;;;;;;9.50;5.20;;;;;;;17.05;70.00;98187.26;105807;1257;61269;-82
2023/11/05 01:15:32;;;;;;;10.70;5.30;;;;;;;17.06;70.01;98178.52;105817;1256;64843;-75
2023/11/05 01:17:59;;;;;;;10.00;5.10;;;;;;;17.05;69.88;98167.92;105895;1254;61449;-71
2023/11/05 01:20:27;;;;;;;12.30;5.40;;;;;;;17.05;69.89;98163.02;106292;1255;63901;-72
2023/11/05 01:22:54;;;;;;;12.90;5.10;;;;;;;17.05;69.76;98169.08;105809;1254;61345;-70
2023/11/05 01:25:21;;;;;;;14.20;5.60;;;;;;;17.04;69.62;98171.10;105830;1254;61365;-71
2023/11/05 01:27:48;;;;;;;14.40;5.50;;;;;;;17.04;69.60;98159.70;105907;1258;65839;-76
2023/11/05 01:30:14;;;;;;;15.30;5.50;;;;;;;17.05;69.66;98148.58;105821;1256;61301;-74
2023/11/05 01:32:41;;;;;;;15.70;6.20;;;;;;;17.05;69.57;98142.95;106090;1257;63838;-72
2023/11/05 01:35:08;;;;;;;13.70;4.90;;;;;;;17.03;69.58;98163.08;105891;1257;61323;-74
2023/11/05 01:37:38;;;;;;;9.20;4.50;;;;;;;17.02;69.37;98173.55;106223;1257;61163;-71
2023/11/05 01:40:06;;;;;;;10.90;4.50;;;;;;;17.01;69.11;98178.81;105928;1262;65737;-71
2023/11/05 01:42:32;;;;;;;10.40;4.20;;;;;;;17.03;69.14;98184.08;105902;1257;61243;-71
2023/11/05 01:44:59;;;;;;;7.60;4.00;;;;;;;17.03;69.16;98202.42;105853;1257;64170;-71
2023/11/05 01:47:26;;;;;;;9.60;4.10;;;;;;;17.02;68.99;98212.98;105671;1257;61272;-71
2023/11/05 01:49:52;;;;;;;12.30;4.50;;;;;;;17.03;69.02;98215.92;106097;1255;63239;-73
2023/11/05 01:52:19;;;;;;;12.80;4.30;;;;;;;17.02;69.16;98220.44;105819;1255;65848;-71
2023/11/05 01:54:46;;;;;;;11.30;4.60;;;;;;;17.02;68.92;98215.68;105808;1257;61365;-72
2023/11/05 01:57:13;;;;;;;11.00;4.10;;;;;;;17.01;68.81;98214.55;105606;1257;64077;-73
2023/11/05 01:59:40;;;;;;;15.60;4.40;;;;;;;17.00;68.92;98211.73;105772;1258;61305;-72
2023/11/05 02:02:06;;;;;;;10.60;4.30;;;;;;;16.99;68.94;98215.95;105615;1262;61330;-72
2023/11/05 02:04:34;;;;;;;12.80;4.40;;;;;;;16.97;68.96;98222.77;105747;1257;66299;-73
2023/11/05 02:07:01;;;;;;;11.80;4.10;;;;;;;16.96;69.07;98214.89;105840;1259;61347;-72
2023/11/05 02:09:30;;;;;;;10.40;4.20;;;;;;;16.95;68.95;98208.17;105804;1257;63826;-72
2023/11/05 02:12:02;;;;;;;10.50;3.90;;;;;;;16.93;69.08;98204.02;105851;1255;61417;-71
2023/11/05 02:14:29;;;;;;;10.10;3.70;;;;;;;16.91;69.12;98198.45;105887;1255;61423;-75
2023/11/05 02:16:56;;;;;;;8.50;3.50;;;;;;;16.88;69.40;98193.94;105729;1259;67348;-72
2023/11/05 02:19:22;;;;;;;13.90;3.60;;;;;;;16.87;69.49;98193.21;105786;1254;61346;-72
2023/11/05 02:21:50;;;;;;;11.00;3.20;;;;;;;16.85;69.65;98199.64;105792;1257;61546;-71
2023/11/05 02:24:17;;;;;;;9.00;2.90;;;;;;;16.83;69.73;98204.05;105793;1254;61276;-72
2023/11/05 02:26:57;;;;;;;11.60;3.10;;;;;;;16.83;70.11;98206.82;105443;1255;61411;-71
2023/11/05 02:29:24;;;;;;;10.10;2.90;;;;;;;16.82;70.17;98211.17;105569;1254;64862;-72
2023/11/05 02:31:52;;;;;;;10.60;3.00;;;;;;;16.82;70.27;98220.13;105783;1257;61407;-72
2023/11/05 02:34:19;;;;;;;14.20;3.00;;;;;;;16.80;70.47;98220.55;105880;1256;63849;-72
2023/11/05 02:36:46;;;;;;;14.20;2.70;;;;;;;16.78;70.52;98216.93;105737;1254;61256;-72
2023/11/05 02:39:13;;;;;;;10.90;2.70;;;;;;;16.76;70.57;98219.70;105864;1257;61235;-73
2023/11/05 02:41:41;;;;;;;12.50;3.70;;;;;;;16.74;70.87;98225.77;105835;1258;65986;-80
2023/11/05 02:44:07;;;;;;;10.10;3.00;;;;;;;16.73;71.07;98227.06;105649;1254;61331;-72
2023/11/05 02:46:34;;;;;;;12.70;3.00;;;;;;;16.72;71.14;98230.27;105768;1257;65594;-73
2023/11/05 02:49:01;;;;;;;9.40;2.60;;;;;;;16.71;71.21;98235.20;105731;1257;61361;-75
2023/11/05 02:51:27;;;;;;;9.60;2.90;;;;;;;16.69;71.29;98235.77;105905;1255;61244;-73
2023/11/05 02:53:55;;;;;;;9.80;2.70;;;;;;;16.69;71.54;98242.98;105919;1259;65879;-73
2023/11/05 02:56:22;;;;;;;9.70;2.60;;;;;;;16.67;71.45;98243.54;105742;1257;61351;-72
2023/11/05 02:58:48;;;;;;;7.90;2.50;;;;;;;16.65;71.68;98241.10;105819;1257;63917;-72
2023/11/05 03:01:22;;;;;;;15.80;3.20;;;;;;;16.64;71.65;98236.11;105682;1257;61396;-76
2023/11/05 03:03:51;;;;;;;10.10;2.50;;;;;;;16.63;71.82;98235.86;105670;1255;61238;-71
2023/11/05 03:06:18;;;;;;;10.80;2.80;;;;;;;16.63;71.92;98232.33;105961;1258;65996;-72
2023/11/05 03:08:44;;;;;;;8.10;2.20;;;;;;;16.64;71.84;98230.98;105617;1257;61324;-72
2023/11/05 03:11:11;;;;;;;9.20;2.60;;;;;;;16.65;71.97;98234.41;105891;1258;61448;-72
2023/11/05 03:13:37;;;;;;;10.10;2.30;;;;;;;16.65;72.12;98236.91;105755;1258;61152;-73
2023/11/05 03:16:05;;;;;;;11.20;2.30;;;;;;;16.63;72.31;98238.40;105894;1259;61234;-73
2023/11/05 03:18:32;;;;;;;10.60;2.50;;;;;;;16.58;72.84;98240.14;105789;1254;64572;-73
2023/11/05 03:20:58;;;;;;;9.90;2.30;;;;;;;16.50;73.30;98236.98;105698;1257;61322;-73
2023/11/05 03:23:25;;;;;;;6.20;1.90;;;;;;;16.43;73.74;98243.41;105799;1255;64063;-72
2023/11/05 03:25:52;;;;;;;10.50;2.10;;;;;;;16.37;74.17;98247.70;105650;1257;61240;-74
2023/11/05 03:28:19;;;;;;;13.70;2.50;;;;;;;16.31;74.52;98244.88;105779;1259;61521;-74
2023/11/05 03:30:46;;;;;;;10.40;2.30;;;;;;;16.28;74.84;98241.94;105612;1262;65991;-74
2023/11/05 03:33:12;;;;;;;8.90;2.20;;;;;;;16.26;75.23;98244.20;105611;1261;61343;-73
2023/11/05 03:35:39;;;;;;;14.90;2.30;;;;;;;16.24;75.29;98244.25;106408;1258;63830;-74
2023/11/05 03:38:06;;;;;;;9.70;1.90;;;;;;;16.22;75.51;98238.86;105621;1254;61379;-70
2023/11/05 03:40:33;;;;;;;8.00;1.80;;;;;;;16.20;75.64;98229.34;105736;1255;61327;-78
2023/11/05 03:43:00;;;;;;;9.20;1.80;;;;;;;16.17;75.87;98230.30;105607;1257;67241;-74
2023/11/05 03:45:26;;;;;;;10.50;1.90;;;;;;;16.14;75.87;98240.23;105724;1253;61953;-73
2023/11/05 03:47:53;;;;;;;8.50;1.70;;;;;;;16.09;75.99;98245.80;105506;1262;64040;-72
2023/11/05 03:50:20;;;;;;;10.90;2.20;;;;;;;16.05;76.23;98248.20;105713;1259;61347;-71
2023/11/05 03:52:46;;;;;;;9.00;1.90;;;;;;;16.00;76.35;98246.12;105722;1255;61244;-71
2023/11/05 03:55:13;;;;;;;5.90;1.50;;;;;;;15.95;76.56;98247.04;105773;1258;61259;-73
2023/11/05 03:57:39;;;;;;;7.70;1.70;;;;;;;15.89;76.61;98253.36;105709;1255;61148;-72
2023/11/05 04:00:08;;;;;;;5.50;1.60;;;;;;;15.84;76.67;98269.45;105767;1259;62721;-72
2023/11/05 04:02:35;;;;;;;6.50;1.30;;;;;;;15.79;76.26;98282.35;106126;1259;61231;-73
2023/11/05 04:05:02;;;;;;;4.00;1.00;;;;;;;15.74;75.82;98297.63;105852;1254;61195;-73
2023/11/05 04:07:29;;;;;;;2.30;0.70;;;;;;;15.64;75.13;98305.98;105947;1259;65807;-72
2023/11/05 04:09:56;;;;;;;2.70;0.90;;;;;;;15.55;74.56;98312.02;105725;1257;61342;-76
2023/11/05 04:12:23;;;;;;;4.20;1.00;;;;;;;15.45;74.23;98307.22;106046;1254;63993;-73
2023/11/05 04:14:49;;;;;;;2.50;0.90;;;;;;;15.37;74.08;98302.09;105708;1258;61221;-73
2023/11/05 04:17:16;;;;;;;2.00;0.60;;;;;;;15.31;74.10;98311.12;105802;1257;61344;-72
2023/11/05 04:19:42;;;;;;;2.40;0.80;;;;;;;15.22;74.20;98316.39;105756;1259;66013;-73
2023/11/05 04:22:09;;;;;;;3.30;0.90;;;;;;;15.14;74.35;98322.30;105654;1254;61243;-71
2023/11/05 04:24:36;;;;;;;2.80;0.90;;;;;;;15.08;74.48;98324.91;105658;1257;64118;-73
2023/11/05 04:27:03;;;;;;;2.80;1.00;;;;;;;15.02;74.60;98333.52;105359;1254;61388;-72
2023/11/05 04:29:29;;;;;;;1.60;0.80;;;;;;;14.97;74.79;98351.91;105722;1259;61336;-73
2023/11/05 04:31:59;;;;;;;2.10;0.90;;;;;;;14.91;74.85;98364.56;105623;1257;64824;-71
2023/11/05 04:34:27;;;;;;;2.80;0.90;;;;;;;14.86;74.92;98376.48;105915;1256;61278;-71
2023/11/05 04:36:54;;;;;;;2.80;0.90;;;;;;;14.83;75.06;98387.02;105636;1262;63904;-73
2023/11/05 04:39:21;;;;;;;1.60;0.80;;;;;;;14.80;75.23;98394.00;105804;1258;61244;-75
2023/11/05 04:41:48;;;;;;;2.00;0.80;;;;;;;14.76;75.40;98397.45;105959;1259;61154;-74
2023/11/05 04:44:15;;;;;;;3.20;1.20;;;;;;;14.73;75.51;98406.34;105762;1260;64573;-72
2023/11/05 04:46:42;;;;;;;2.90;0.80;;;;;;;14.72;75.74;98412.77;105743;1257;61270;-71
2023/11/05 04:49:09;;;;;;;2.10;0.90;;;;;;;14.71;75.78;98427.19;105768;1257;62729;-71
2023/11/05 04:51:36;;;;;;;2.20;0.70;;;;;;;14.69;75.33;98444.61;105508;1257;61251;-72
2023/11/05 04:54:03;;;;;;;2.70;0.80;;;;;;;14.65;73.73;98447.01;105679;1257;61231;-71
2023/11/05 04:56:29;;;;;;;0.80;0.40;;;;;;;14.61;71.96;98454.55;105876;1257;64795;-73
2023/11/05 04:58:56;;;;;;;0.50;0.20;;;;;;;14.57;70.63;98456.81;105896;1257;61282;-75
2023/11/05 05:01:23;;;;;;;2.20;0.20;;;;;;;14.50;69.15;98454.85;105892;1259;64086;-72
2023/11/05 05:03:49;;;;;;;0.70;0.30;;;;;;;14.43;68.52;98468.78;105604;1257;61372;-71
2023/11/05 05:06:17;;;;;;;1.60;0.30;;;;;;;14.40;68.22;98483.92;105867;1254;61343;-76
2023/11/05 05:08:45;;;;;;;0.70;0.20;;;;;;;14.32;67.64;98491.98;105812;1260;65895;-72
2023/11/05 05:11:12;;;;;;;0.40;0.30;;;;;;;14.24;67.39;98499.39;106035;1254;61407;-73
2023/11/05 05:13:39;;;;;;;0.40;0.30;;;;;;;14.18;67.51;98502.39;105887;1259;64213;-72
2023/11/05 05:16:08;;;;;;;0.50;0.30;;;;;;;14.13;67.49;98510.97;105843;1257;63086;-73
2023/11/05 05:18:35;;;;;;;0.60;0.40;;;;;;;14.10;67.43;98528.41;105609;1254;61192;-76
2023/11/05 05:21:02;;;;;;;1.30;0.20;;;;;;;14.06;67.38;98530.42;106006;1258;66024;-72
2023/11/05 05:23:28;;;;;;;1.50;0.20;;;;;;;14.03;67.56;98541.59;105704;1254;61400;-71
2023/11/05 05:25:55;;;;;;;0.30;0.20;;;;;;;13.97;67.44;98550.30;105877;1259;64105;-72
2023/11/05 05:28:22;;;;;;;0.60;0.30;;;;;;;13.92;67.66;98555.03;105774;1254;61238;-71
2023/11/05 05:30:49;;;;;;;0.30;0.20;;;;;;;13.89;67.71;98555.48;105795;1259;61253;-73
2023/11/05 05:33:15;;;;;;;2.50;0.40;;;;;;;13.87;67.88;98551.04;105853;1257;64613;-73
2023/11/05 05:35:42;;;;;;;1.00;0.40;;;;;;;13.84;67.94;98555.18;105852;1259;61330;-71
2023/11/05 05:38:09;;;;;;;0.60;0.30;;;;;;;13.78;68.13;98552.46;105827;1260;61388;-75
2023/11/05 05:40:37;;;;;;;0.20;0.20;;;;;;;13.73;68.14;98554.77;105854;1254;61294;-72
2023/11/05 05:43:03;;;;;;;0.20;0.20;;;;;;;13.72;68.36;98557.98;105947;1259;61359;-72
2023/11/05 05:45:30;;;;;;;0.80;0.30;;;;;;;13.71;68.45;98562.11;105973;1257;64571;-71
2023/11/05 05:47:57;;;;;;;0.30;0.30;;;;;;;13.70;68.47;98573.59;105938;1257;61263;-72
2023/11/05 05:50:24;;;;;;;0.30;0.30;;;;;;;13.68;68.52;98584.45;105527;1260;63989;-72
2023/11/05 05:52:51;;;;;;;0.80;0.40;;;;;;;13.67;68.51;98589.84;105716;1260;61230;-72
2023/11/05 05:55:18;;;;;;;2.20;0.60;;;;;;;13.66;68.54;98596.59;105942;1257;61231;-71
2023/11/05 05:57:44;;;;;;;1.40;0.30;;;;;;;13.64;68.60;98600.30;105817;1260;66006;-75
2023/11/05 06:00:13;;;;;;;0.70;0.50;;;;;;;13.63;68.59;98599.35;105945;1259;61362;-70
2023/11/05 06:02:40;;;;;;;0.90;0.50;;;;;;;13.64;68.76;98596.79;105823;1257;64311;-72
2023/11/05 06:05:08;;;;;;;1.20;0.70;;;;;;;13.65;68.79;98597.85;105745;1258;61347;-72
2023/11/05 06:07:37;;;;;;;2.10;0.90;;;;;;;13.66;68.73;98604.89;105878;1257;61337;-72
2023/11/05 06:10:09;;;;;;;2.00;0.60;;;;;;;13.65;68.73;98610.88;105796;1255;64661;-72
2023/11/05 06:12:36;;;;;;;1.00;0.60;;;;;;;13.64;68.78;98604.55;105684;1259;61336;-73
2023/11/05 06:15:04;;;;;;;1.30;0.80;;;;;;;13.64;68.89;98603.73;105810;1257;63829;-71
2023/11/05 06:17:41;;;;;;;0.80;0.50;;;;;;;13.60;68.79;98611.71;105515;1257;61335;-73
2023/11/05 06:20:09;;;;;;;1.60;0.70;;;;;;;13.60;69.07;98620.10;105664;1257;62036;-73
2023/11/05 06:22:37;;;;;;;1.10;0.50;;;;;;;13.58;69.03;98624.00;105714;1259;66113;-76
2023/11/05 06:25:09;;;;;;;0.70;0.50;;;;;;;13.57;69.00;98630.92;105761;1259;61221;-74
2023/11/05 06:27:38;;;;;;;0.90;0.60;;;;;;;13.56;69.09;98633.29;105585;1254;62734;-74
2023/11/05 06:30:06;;;;;;;1.30;0.70;;;;;;;13.57;69.21;98626.93;105739;1263;61260;-73
2023/11/05 06:32:33;;;;;;;2.20;0.50;;;;;;;13.59;69.41;98621.80;105659;1254;61301;-74
2023/11/05 06:35:00;;;;;;;1.10;0.50;;;;;;;13.59;69.18;98626.41;105498;1262;65935;-73
2023/11/05 06:37:29;;;;;;;0.80;0.30;;;;;;;13.57;69.13;98631.08;105842;1255;61234;-78
2023/11/05 06:39:59;;;;;;;2.00;1.00;;;;;;;13.56;69.20;98632.27;105871;1257;62836;-73
2023/11/05 06:42:26;;;;;;;1.80;1.00;;;;;;;13.57;69.04;98628.04;106015;1257;61319;-71
2023/11/05 06:44:53;;;;;;;0.50;0.40;;;;;;;13.58;68.93;98623.88;105533;1255;61232;-72
2023/11/05 06:47:19;;;;;;;2.30;0.40;;;;;;;13.58;68.85;98624.98;105457;1254;65852;-71
2023/11/05 06:49:46;;;;;;;0.40;0.30;;;;;;;13.57;68.71;98627.86;105760;1260;61270;-72
2023/11/05 06:52:13;;;;;;;1.40;0.50;;;;;;;13.56;68.60;98633.41;105873;1259;62817;-72
2023/11/05 06:54:41;;;;;;;0.60;0.40;;;;;;;13.56;68.55;98637.89;105819;1257;61398;-72
2023/11/05 06:57:09;;;;;;;0.90;0.40;;;;;;;13.58;68.77;98633.05;106001;1260;61263;-73
2023/11/05 06:59:36;;;;;;;1.30;0.60;;;;;;;13.60;68.63;98627.52;105785;1260;64737;-78
2023/11/05 07:02:03;;;;;;;0.40;0.40;;;;;;;13.63;68.51;98634.93;105879;1257;61257;-71
2023/11/05 07:04:31;;;;;;;0.80;0.30;;;;;;;13.65;68.33;98645.15;105867;1260;64097;-72
2023/11/05 07:06:59;;;;;;;1.30;0.30;;;;;;;13.68;68.27;98653.31;105771;1254;61256;-71
2023/11/05 07:09:26;;;;;;;2.30;0.40;;;;;;;13.71;68.24;98659.90;105910;1258;61282;-71
2023/11/05 07:11:53;;;;;;;0.50;0.30;;;;;;;13.74;67.90;98672.15;105842;1269;65792;-72
2023/11/05 07:14:20;;;;;;;0.80;0.30;;;;;;;13.75;67.67;98680.35;106109;1257;61314;-73
2023/11/05 07:16:47;;;;;;;1.00;0.40;;;;;;;13.75;67.73;98688.32;106232;1259;62564;-73
2023/11/05 07:19:14;;;;;;;0.60;0.20;;;;;;;13.74;67.36;98693.79;105742;1254;61237;-74
2023/11/05 07:21:43;;;;;;;0.50;0.20;;;;;;;13.71;66.94;98703.29;105524;1260;61247;-76
2023/11/05 07:24:11;;;;;;;0.40;0.30;;;;;;;13.68;66.86;98694.82;105686;1259;66117;-73
2023/11/05 07:26:37;;;;;;;0.40;0.30;;;;;;;13.70;67.07;98692.43;105850;1258;61231;-76
2023/11/05 07:29:04;;;;;;;1.30;0.20;;;;;;;13.76;67.18;98695.52;105880;1259;63981;-72
2023/11/05 07:31:31;;;;;;;1.00;0.50;;;;;;;13.83;67.13;98698.51;105585;1255;61323;-72
2023/11/05 07:33:58;;;;;;;0.90;0.30;;;;;;;13.89;67.01;98700.56;105861;1255;61364;-71
2023/11/05 07:36:25;;;;;;;1.00;0.50;;;;;;;13.94;66.80;98706.70;105838;1254;65963;-73
2023/11/05 07:38:51;;;;;;;1.30;0.60;;;;;;;13.97;66.52;98710.73;105670;1257;61254;-70
2023/11/05 07:41:18;;;;;;;0.90;0.40;;;;;;;14.03;66.38;98718.74;105662;1260;63683;-71
2023/11/05 07:43:45;;;;;;;2.90;0.60;;;;;;;14.11;66.03;98725.60;105735;1259;61346;-78
2023/11/05 07:46:12;;;;;;;0.40;0.30;;;;;;;14.20;65.68;98730.62;105863;1255;61262;-72
2023/11/05 07:48:39;;;;;;;0.70;0.40;;;;;;;14.27;65.10;98735.71;105746;1267;66393;-71
2023/11/05 07:51:06;;;;;;;4.90;0.50;;;;;;;14.25;64.86;98741.38;105776;1254;61287;-70
2023/11/05 07:53:34;;;;;;;0.50;0.30;;;;;;;14.22;64.68;98745.71;105807;1254;62630;-72
2023/11/05 07:56:00;;;;;;;1.20;0.40;;;;;;;14.20;64.70;98748.06;105688;1262;61355;-72
2023/11/05 07:58:27;;;;;;;2.90;0.80;;;;;;;14.21;64.60;98754.12;105554;1260;61336;-71
2023/11/05 08:00:54;;;;;;;0.40;0.40;;;;;;;14.19;64.29;98756.48;105678;1255;65999;-70
2023/11/05 08:03:22;;;;;;;0.50;0.30;;;;;;;14.16;64.21;98756.98;105773;1260;61822;-70
2023/11/05 08:05:50;;;;;;;3.80;0.50;;;;;;;14.14;64.30;98759.90;105607;1257;64772;-80
2023/11/05 08:08:16;;;;;;;2.00;0.50;;;;;;;14.12;64.44;98759.23;105876;1255;61260;-72
2023/11/05 08:10:43;;;;;;;0.90;0.50;;;;;;;14.13;64.62;98764.96;105721;1259;61323;-76
2023/11/05 08:13:10;;;;;;;1.60;0.50;;;;;;;14.15;64.71;98763.14;105533;1260;64801;-77
2023/11/05 08:15:37;;;;;;;0.60;0.50;;;;;;;14.23;64.91;98763.41;106182;1260;61344;-72
2023/11/05 08:18:04;;;;;;;1.80;0.70;;;;;;;14.36;64.70;98764.03;105612;1260;64151;-73
2023/11/05 08:20:32;;;;;;;1.30;0.60;;;;;;;14.45;64.59;98754.73;105874;1254;61182;-75
2023/11/05 08:22:59;;;;;;;1.20;0.60;;;;;;;14.61;64.66;98750.52;105752;1259;61280;-72
2023/11/05 08:25:26;;;;;;;1.90;0.70;;;;;;;14.79;64.29;98749.65;105761;1259;61286;-71
2023/11/05 08:27:54;;;;;;;1.00;0.40;;;;;;;14.98;64.07;98752.90;105761;1261;62536;-72
2023/11/05 08:30:23;;;;;;;1.50;0.60;;;;;;;15.11;62.82;98749.79;105596;1259;64030;-77
2023/11/05 08:32:52;;;;;;;0.80;0.30;;;;;;;15.13;62.21;98746.86;105627;1256;61298;-71
2023/11/05 08:35:19;;;;;;;0.70;0.50;;;;;;;15.12;62.01;98749.02;105765;1260;61315;-71
2023/11/05 08:37:47;;;;;;;2.70;1.30;;;;;;;15.07;61.45;98752.42;105739;1260;66085;-70
2023/11/05 08:40:15;;;;;;;1.20;0.80;;;;;;;15.02;61.41;98748.84;106410;1257;61313;-75
2023/11/05 08:42:43;;;;;;;0.90;0.60;;;;;;;14.97;61.27;98745.20;105948;1264;63907;-73
2023/11/05 08:45:10;;;;;;;1.10;0.40;;;;;;;14.95;61.29;98740.17;105873;1254;61179;-75
2023/11/05 08:47:37;;;;;;;1.80;0.50;;;;;;;14.96;61.06;98737.25;105794;1257;61238;-77
2023/11/05 08:50:06;;;;;;;1.20;0.40;;;;;;;15.01;61.06;98736.57;105786;1256;66107;-73
2023/11/05 08:52:33;;;;;;;0.70;0.30;;;;;;;15.09;60.73;98737.70;105810;1255;61345;-73
2023/11/05 08:55:03;;;;;;;0.40;0.30;;;;;;;15.14;60.49;98732.47;105776;1254;63847;-72
2023/11/05 08:57:30;;;;;;;0.90;0.60;;;;;;;15.19;60.13;98732.73;105629;1255;61260;-77
2023/11/05 08:59:57;;;;;;;0.80;0.40;;;;;;;15.26;60.03;98733.40;105929;1260;61285;-70
2023/11/05 09:02:24;;;;;;;2.20;0.30;;;;;;;15.33;59.49;98735.73;105492;1264;65775;-75
2023/11/05 09:04:52;;;;;;;1.30;0.40;;;;;;;15.32;59.12;98734.80;105634;1258;61432;-73
2023/11/05 09:07:19;;;;;;;0.60;0.40;;;;;;;15.29;59.34;98735.52;105823;1254;63793;-73
2023/11/05 09:09:46;;;;;;;1.40;0.60;;;;;;;15.34;59.38;98732.37;105811;1256;61241;-72
2023/11/05 09:12:14;;;;;;;0.70;0.30;;;;;;;15.39;59.26;98725.53;105709;1258;61216;-69
2023/11/05 09:14:42;;;;;;;0.50;0.40;;;;;;;15.46;59.36;98725.42;105772;1254;66814;-71
2023/11/05 09:17:09;;;;;;;1.80;0.50;;;;;;;15.53;59.21;98724.16;105705;1259;61320;-71
2023/11/05 09:19:37;;;;;;;1.30;0.60;;;;;;;15.63;59.16;98728.55;105690;1257;65770;-72
2023/11/05 09:22:04;;;;;;;0.60;0.50;;;;;;;15.69;58.65;98728.48;105646;1254;61114;-70
2023/11/05 09:24:31;;;;;;;0.90;0.80;;;;;;;15.73;58.69;98719.66;105832;1256;61359;-70
2023/11/05 09:26:58;;;;;;;0.60;0.40;;;;;;;15.83;58.64;98715.79;105421;1259;66498;-71
2023/11/05 09:29:25;;;;;;;2.00;0.60;;;;;;;15.96;58.51;98717.25;105260;1254;61375;-70
2023/11/05 09:31:53;;;;;;;1.50;1.00;;;;;;;16.09;58.11;98713.42;105560;1259;63364;-69
2023/11/05 09:34:20;;;;;;;2.50;0.80;;;;;;;16.18;57.78;98717.28;105385;1254;61307;-70
2023/11/05 09:36:47;;;;;;;1.10;0.50;;;;;;;16.29;57.51;98725.11;105363;1257;61227;-70
2023/11/05 09:39:14;;;;;;;0.80;0.50;;;;;;;16.34;57.11;98731.75;105120;1260;65819;-78
2023/11/05 09:41:42;;;;;;;1.40;0.60;;;;;;;16.43;57.55;98729.31;105335;1260;61381;-72
2023/11/05 09:44:09;;;;;;;1.80;1.20;;;;;;;16.66;57.27;98732.64;105506;1260;63932;-69
2023/11/05 09:46:36;;;;;;;1.60;0.60;;;;;;;16.89;56.49;98734.96;105710;1259;61259;-71
2023/11/05 09:49:03;;;;;;;2.40;1.70;;;;;;;17.09;56.26;98736.97;105735;1255;61289;-72
2023/11/05 09:51:29;;;;;;;1.10;0.80;;;;;;;17.30;55.80;98729.70;105633;1260;65885;-68
2023/11/05 09:53:56;;;;;;;0.60;0.30;;;;;;;17.45;54.72;98726.31;105770;1259;61370;-72
2023/11/05 09:56:25;;;;;;;0.80;0.40;;;;;;;17.60;55.04;98721.59;105501;1259;63729;-71
2023/11/05 09:58:52;;;;;;;1.90;0.60;;;;;;;17.84;54.21;98715.00;105625;1254;61379;-71
2023/11/05 10:01:19;;;;;;;0.70;0.40;;;;;;;17.96;53.31;98723.15;105508;1260;61253;-71
2023/11/05 10:03:46;;;;;;;2.90;1.10;;;;;;;17.99;52.53;98724.13;105463;1260;66005;-72
2023/11/05 10:06:16;;;;;;;1.10;0.50;;;;;;;18.06;51.90;98726.05;105347;1255;61352;-70
2023/11/05 10:08:43;;;;;;;0.70;0.50;;;;;;;18.14;51.29;98724.98;105583;1260;65522;-72
2023/11/05 10:11:10;;;;;;;2.10;1.60;;;;;;;18.15;51.30;98718.78;105550;1257;61343;-70
2023/11/05 10:13:37;;;;;;;1.30;0.80;;;;;;;18.16;51.17;98714.63;105674;1254;61272;-70
2023/11/05 10:16:04;;;;;;;0.70;0.70;;;;;;;18.14;50.70;98712.45;105451;1260;67546;-70
2023/11/05 10:18:36;;;;;;;2.00;1.20;;;;;;;18.05;50.31;98712.06;105806;1254;67620;-71
2023/11/05 10:21:04;;;;;;;0.70;0.30;;;;;;;17.95;50.39;98710.58;105682;1254;74093;-71
2023/11/05 10:23:47;;;;;;;0.60;0.30;;;;;;;17.89;51.26;98703.04;105748;1254;61339;-70
2023/11/05 10:26:15;;;;;;;1.60;0.40;;;;;;;17.95;50.61;98700.48;105551;1255;61335;-71
2023/11/05 10:28:42;;;;;;;0.40;0.30;;;;;;;17.90;50.11;98696.54;105677;1254;66502;-69
2023/11/05 10:31:09;;;;;;;1.20;0.40;;;;;;;17.77;50.34;98694.35;105806;1254;61234;-72
2023/11/05 10:33:37;;;;;;;1.20;0.70;;;;;;;17.66;50.39;98696.60;105540;1254;63848;-70
2023/11/05 10:36:06;;;;;;;2.90;1.70;;;;;;;17.59;50.79;98701.42;105279;1254;61298;-69
2023/11/05 10:38:33;;;;;;;3.60;1.30;;;;;;;17.53;51.12;98702.12;105599;1259;61366;-69
2023/11/05 10:41:01;;;;;;;1.00;0.60;;;;;;;17.50;51.15;98705.38;105566;1254;67595;-71
2023/11/05 10:43:29;;;;;;;3.30;0.40;;;;;;;17.51;51.28;98703.44;105407;1260;61461;-70
2023/11/05 10:45:56;;;;;;;1.20;0.60;;;;;;;17.50;51.09;98703.41;105658;1255;65824;-69
2023/11/05 10:48:23;;;;;;;3.40;0.90;;;;;;;17.47;51.32;98701.96;105701;1254;61186;-70
2023/11/05 10:50:51;;;;;;;4.40;0.70;;;;;;;17.55;51.82;98698.63;105472;1260;61298;-71
2023/11/05 10:53:18;;;;;;;1.10;0.50;;;;;;;17.77;51.99;98696.52;105732;1255;64620;-73
2023/11/05 10:55:44;;;;;;;1.30;0.50;;;;;;;18.10;51.66;98696.55;105705;1254;61273;-68
2023/11/05 10:58:11;;;;;;;1.40;0.40;;;;;;;18.39;50.11;98696.89;105571;1254;63932;-69
2023/11/05 11:00:44;;;;;;;1.90;0.50;;;;;;;18.56;49.96;98700.39;105547;1254;61166;-71
2023/11/05 11:03:13;;;;;;;1.00;0.50;;;;;;;18.81;50.18;98703.30;105400;1260;61266;-70
2023/11/05 11:05:40;;;;;;;0.50;0.40;;;;;;;19.11;49.50;98701.01;105474;1260;65874;-72
2023/11/05 11:08:15;;;;;;;0.70;0.40;;;;;;;19.28;48.06;98699.83;105474;1254;61279;-72
2023/11/05 11:10:48;;;;;;;0.60;0.40;;;;;;;19.28;47.63;98690.61;105510;1254;63732;-70
2023/11/05 11:13:28;;;;;;;1.40;0.60;;;;;;;19.30;47.74;98692.58;105552;1258;61260;-70
2023/11/05 11:15:59;;;;;;;2.50;0.60;;;;;;;19.35;47.78;98699.66;105686;1257;61285;-72
2023/11/05 11:18:26;;;;;;;0.90;0.40;;;;;;;19.48;47.79;98701.17;106072;1257;65730;-70
2023/11/05 11:20:56;;;;;;;2.10;0.50;;;;;;;19.57;47.54;98703.73;105441;1254;61343;-68
2023/11/05 11:23:23;;;;;;;0.60;0.50;;;;;;;19.48;47.05;98707.71;105933;1259;62571;-70